M I D A S
Marine Information and Data Acquisition System
Tripno 715 of the Zeeleeuw from 2004-05-12 06:32:25 to 2004-05-12 16:00:46
Back to CruiseResearch ActivitiesStationsMapUnderway DataData graphs

EquipmentUnitsComment
TimeDGPSUTC
LatitudeDGPSDM.mWGS84
LongitudeDGPSDM.mWGS84
TemperatureSBE03/SBE38deg celciusITS90
ConductivitySBE21S/mITS90
SalinitySBE21 Practical Salinity Units
ChlorophylAChelsea fluorimeterg/lCalibrated in Aceton
Missing or incorrect values are displayed as -999
Sea surface data collected by the RV Zeeleeuw from 2004-05-12 06:32:25 to 2004-05-12 16:00:46
Time Latitude Longitude Temperature Conductivity Salinity ChlorophylA
2004-05-12 06:33:28 51°13.609 2°56.049 18.416407 3.722857 28.667452 8.522546
2004-05-12 06:34:28 51°13.644 2°55.937 18.498024 3.722857 28.666923 8.522546
2004-05-12 06:35:27 51°13.686 2°55.824 18.460847 3.722963 28.667296 8.522546
2004-05-12 06:36:27 51°13.702 2°55.776 18.604153 3.722963 28.666239 8.522546
2004-05-12 06:37:27 51°13.696 2°55.748 18.572195 3.722963 28.665182 8.556255
2004-05-12 06:38:27 51°13.707 2°55.765 18.430479 3.723068 28.66714 8.556255
2004-05-12 06:39:28 51°13.7 2°55.751 18.785096 3.723173 28.666984 8.589965
2004-05-12 06:40:27 51°13.779 2°55.685 18.503853 3.723068 28.665554 8.556255
2004-05-12 06:41:28 51°13.877 2°55.591 18.44492 3.723279 28.667885 8.589965
2004-05-12 06:42:27 51°13.988 2°55.51 18.492939 3.723173 28.666984 8.589965
2004-05-12 06:43:27 51°14.108 2°55.431 18.473545 3.723173 28.665398 8.589965
2004-05-12 06:44:27 51°14.247 2°55.304 18.47003 3.723279 28.666828 8.589965
2004-05-12 06:45:28 51°14.368 2°55.046 18.427168 3.722857 28.662166 8.556255
2004-05-12 06:46:27 51°14.496 2°54.777 18.365477 3.722541 28.65735 8.589965
2004-05-12 06:47:27 51°14.624 2°54.507 18.265288 3.723806 28.667106 8.522546
2004-05-12 06:48:27 51°14.739 2°54.222 18.306509 3.723384 28.66403 8.556255
2004-05-12 06:49:28 51°14.837 2°53.918 18.34294 3.722857 28.658996 8.589965
2004-05-12 06:50:27 51°14.918 2°53.609 18.36353 3.723279 28.661015 8.522546
2004-05-12 06:51:27 51°14.997 2°53.293 18.389953 3.722962 28.656728 8.623674
2004-05-12 06:52:27 51°15.075 2°52.979 18.396578 3.724016 28.665737 8.488836
2004-05-12 06:53:27 51°15.154 2°52.662 18.419511 3.723279 28.65943 8.522546
2004-05-12 06:54:27 51°15.224 2°52.339 18.437182 3.723068 28.657629 8.556255
2004-05-12 06:55:27 51°15.284 2°52.01 18.452574 3.723173 28.658001 8.589965
2004-05-12 06:56:27 51°15.315 2°51.675 18.473545 3.723384 28.659803 8.589965
2004-05-12 06:57:26 51°15.283 2°51.348 18.489011 3.723595 28.663718 8.556255
2004-05-12 06:58:27 51°15.246 2°51.007 18.494345 3.722752 28.651229 8.589965
2004-05-12 06:59:28 51°15.209 2°50.667 18.50745 3.723595 28.663718 8.589965
2004-05-12 07:00:28 51°15.174 2°50.333 18.524561 3.723595 28.653155 8.623674
2004-05-12 07:01:27 51°15.141 2°50.005 18.535388 3.723806 28.663407 8.589965
2004-05-12 07:02:27 51°15.109 2°49.67 18.549436 3.724438 28.666171 8.556255
2004-05-12 07:03:27 51°15.078 2°49.335 18.557409 3.724438 28.66353 8.589965
2004-05-12 07:04:27 51°15.046 2°48.999 18.569882 3.724543 28.664959 8.589965
2004-05-12 07:05:27 51°15.013 2°48.665 18.585492 3.724333 28.671611 8.589965
2004-05-12 07:06:27 51°14.981 2°48.328 18.595566 3.724649 28.675371 8.623674
2004-05-12 07:07:27 51°14.947 2°47.997 18.608983 3.724543 28.666015 8.589965
2004-05-12 07:08:27 51°14.916 2°47.664 18.620251 3.725176 28.672477 8.589965
2004-05-12 07:09:27 51°14.885 2°47.332 18.631021 3.724543 28.667072 8.589965
2004-05-12 07:10:27 51°14.851 2°47.002 18.642533 3.72507 28.672633 8.623674
2004-05-12 07:11:28 51°14.815 2°46.664 18.653548 3.725386 28.674279 8.623674
2004-05-12 07:12:28 51°14.783 2°46.327 18.663695 3.725492 28.673066 8.623674
2004-05-12 07:13:27 51°14.752 2°45.998 18.67417 3.725492 28.673066 8.589965
2004-05-12 07:14:27 51°14.722 2°45.662 18.684438 3.724965 28.668034 8.657383
2004-05-12 07:15:27 51°14.691 2°45.329 18.695322 3.725175 28.668779 8.589965
2004-05-12 07:16:28 51°14.659 2°44.994 18.707277 3.72507 28.668934 8.623674
2004-05-12 07:17:26 51°14.629 2°44.676 18.716056 3.725386 28.671637 8.657383
2004-05-12 07:18:27 51°14.598 2°44.341 18.726606 3.725492 28.66884 8.623674
2004-05-12 07:19:28 51°14.57 2°44.004 18.736536 3.725386 28.668995 8.657383
2004-05-12 07:20:27 51°14.541 2°43.682 18.747618 3.725386 28.664242 8.623674
2004-05-12 07:21:27 51°14.509 2°43.352 18.754168 3.725597 28.667628 8.589965
2004-05-12 07:22:27 51°14.48 2°43.02 18.764053 3.725913 28.669273 8.623674
2004-05-12 07:23:27 51°14.448 2°42.69 18.774884 3.725913 28.669273 8.623674
2004-05-12 07:24:26 51°14.42 2°42.362 18.782625 3.725702 28.666944 8.623674
2004-05-12 07:25:28 51°14.392 2°42.017 18.791436 3.725913 28.667161 8.623674
2004-05-12 07:26:27 51°14.359 2°41.692 18.800081 3.725281 28.653313 8.623674
2004-05-12 07:27:27 51°14.328 2°41.358 18.805679 3.725386 28.665826 8.623674
2004-05-12 07:28:27 51°14.302 2°41.023 18.811894 3.725808 28.664148 8.589965
2004-05-12 07:29:26 51°14.28 2°40.692 18.817903 3.725281 28.659646 8.623674
2004-05-12 07:30:27 51°14.257 2°40.348 18.833827 3.726124 28.666322 8.623674
2004-05-12 07:31:27 51°14.234 2°40.013 18.840698 3.726124 28.664738 8.623674
2004-05-12 07:32:28 51°14.211 2°39.669 18.84765 3.725913 28.664521 8.657383
2004-05-12 07:33:28 51°14.186 2°39.331 18.855013 3.726018 28.664365 8.657383
2004-05-12 07:34:27 51°14.149 2°39.003 18.862334 3.725808 28.662564 8.657383
2004-05-12 07:35:27 51°14.115 2°38.666 18.871711 3.726334 28.663899 8.657383
2004-05-12 07:36:27 51°14.066 2°38.335 18.879153 3.725913 28.660825 8.691093
2004-05-12 07:37:27 51°13.991 2°38.019 18.885937 3.726018 28.665421 8.623674
2004-05-12 07:38:25 51°13.901 2°37.727 18.88787 3.725702 28.649001 8.623674
2004-05-12 07:39:25 51°13.79 2°37.439 18.896955 3.725702 28.661136 8.657383
2004-05-12 07:40:27 51°13.701 2°37.121 18.902668 3.725808 28.658342 8.657383
2004-05-12 07:41:27 51°13.619 2°36.808 18.9113 3.726756 28.664333 8.623674
2004-05-12 07:42:27 51°13.541 2°36.492 18.914998 3.72644 28.66216 8.623674
2004-05-12 07:43:27 51°13.466 2°36.176 18.925559 3.726334 28.660205 8.623674
2004-05-12 07:44:28 51°13.389 2°35.851 18.932257 3.726756 28.664333 8.657383
2004-05-12 07:45:27 51°13.313 2°35.532 18.938542 3.726651 28.662378 8.657383
2004-05-12 07:46:27 51°13.229 2°35.221 18.943595 3.726861 28.663122 8.623674
2004-05-12 07:47:28 51°13.146 2°34.897 18.952057 3.726756 28.659584 8.657383
2004-05-12 07:48:27 51°13.067 2°34.577 18.956411 3.726756 28.661167 8.657383
2004-05-12 07:49:26 51°12.988 2°34.265 18.962325 3.726545 28.659894 8.657383
2004-05-12 07:50:25 51°12.91 2°33.947 18.97062 3.727072 28.66334 8.657383
2004-05-12 07:51:28 51°12.826 2°33.611 18.972263 3.726756 28.659584 8.691093
2004-05-12 07:52:27 51°12.747 2°33.295 18.981378 3.726545 28.656201 8.657383
2004-05-12 07:53:27 51°12.664 2°32.975 18.983801 3.726967 28.661912 8.657383
2004-05-12 07:54:28 51°12.581 2°32.652 18.9939 3.726967 28.656636 8.691093
2004-05-12 07:55:27 51°12.5 2°32.34 18.998045 3.726756 28.659056 8.657383
2004-05-12 07:56:28 51°12.418 2°32.009 19.005064 3.726861 28.658374 8.657383
2004-05-12 07:57:28 51°12.335 2°31.689 19.011754 3.726756 28.654836 8.691093
2004-05-12 07:58:28 51°12.242 2°31.38 19.017048 3.72665 28.654464 8.657383
2004-05-12 07:59:26 51°12.156 2°31.08 19.02111 3.726545 28.653564 8.691093
2004-05-12 08:00:28 51°12.063 2°30.76 19.024762 3.726861 28.655736 8.657383
2004-05-12 08:01:28 51°11.975 2°30.446 19.031614 3.727072 28.656481 8.691093
2004-05-12 08:02:28 51°11.883 2°30.139 19.038137 3.727388 28.656544 8.657383
2004-05-12 08:03:27 51°11.791 2°29.832 19.043183 3.726756 28.652727 8.657383
2004-05-12 08:04:27 51°11.7 2°29.523 19.043552 3.726967 28.653999 8.657383
2004-05-12 08:05:27 51°11.607 2°29.208 19.04708 3.726756 28.653782 8.691093
2004-05-12 08:06:27 51°11.516 2°28.901 19.058195 3.726756 28.647455 8.657383
2004-05-12 08:07:28 51°11.425 2°28.587 19.062255 3.726966 28.649781 8.691093
2004-05-12 08:08:27 51°11.345 2°28.275 19.068242 3.727388 28.654962 8.657383
2004-05-12 08:09:28 51°11.262 2°27.949 19.06734 3.726756 28.650618 8.657383
2004-05-12 08:10:27 51°11.19 2°27.63 19.080543 3.726966 28.649254 8.691093
2004-05-12 08:11:28 51°11.123 2°27.32 19.08989 3.727388 28.65338 8.724802
2004-05-12 08:12:27 51°11.07 2°27.083 19.089972 3.727072 28.651208 8.691093
2004-05-12 08:13:27 51°11.018 2°26.852 19.096162 3.726966 28.648727 8.724802
2004-05-12 08:14:28 51°10.969 2°26.615 19.102597 3.726861 28.647827 8.691093
2004-05-12 08:15:28 51°10.92 2°26.38 19.109605 3.727388 28.650217 8.724802
2004-05-12 08:16:27 51°10.885 2°26.144 19.115957 3.727388 28.650217 8.691093
2004-05-12 08:17:27 51°10.851 2°25.902 19.120465 3.727493 28.651644 8.691093
2004-05-12 08:18:28 51°10.815 2°25.657 19.127471 3.727493 28.648482 8.691093
2004-05-12 08:19:28 51°10.781 2°25.414 19.134968 3.727704 28.650808 8.691093
2004-05-12 08:20:27 51°10.746 2°25.176 19.141072 3.727388 28.649163 8.691093
2004-05-12 08:21:28 51°10.711 2°24.931 19.143202 3.727704 28.649754 8.691093
2004-05-12 08:22:27 51°10.68 2°24.693 19.148732 3.727282 28.644575 8.691093
2004-05-12 08:23:26 51°10.648 2°24.45 19.154998 3.727599 28.645692 8.724802
2004-05-12 08:24:28 51°10.597 2°24.111 19.159995 3.727915 28.647864 8.724802
2004-05-12 08:25:28 51°10.521 2°23.789 19.164213 3.728125 28.648082 8.724802
2004-05-12 08:26:27 51°10.418 2°23.499 19.168062 3.727809 28.645911 8.691093
2004-05-12 08:27:28 51°10.285 2°23.22 19.169045 3.727915 28.64681 8.724802
2004-05-12 08:28:28 51°10.163 2°22.936 19.181205 3.72802 28.647183 8.724802
2004-05-12 08:29:28 51°10.041 2°22.649 19.183497 3.727809 28.64433 8.724802
2004-05-12 08:30:25 51°9.924 2°22.379 19.188901 3.728231 28.645294 8.691093
2004-05-12 08:31:28 51°9.796 2°22.082 19.194223 3.728231 28.645294 8.724802
2004-05-12 08:32:27 51°9.678 2°21.801 19.196842 3.728231 28.646347 8.691093
2004-05-12 08:33:27 51°9.555 2°21.511 19.201303 3.72802 28.645075 8.724802
2004-05-12 08:34:28 51°9.437 2°21.209 19.205232 3.728125 28.644921 8.758512
2004-05-12 08:35:28 51°9.322 2°20.913 19.211862 3.728336 28.643559 8.724802
2004-05-12 08:36:25 51°9.214 2°20.624 19.214808 3.728652 28.645204 8.724802
2004-05-12 08:37:27 51°9.088 2°20.316 19.220087 3.728547 28.645885 8.724802
2004-05-12 08:38:28 51°8.992 2°19.993 19.225979 3.728652 28.643097 8.691093
2004-05-12 08:39:27 51°8.994 2°19.642 19.23277 3.728547 28.643778 8.724802
2004-05-12 08:40:28 51°9.001 2°19.279 19.238293 3.728442 28.642879 8.724802
2004-05-12 08:41:25 51°9.008 2°18.938 19.245451 3.728758 28.643996 8.724802
2004-05-12 08:42:26 51°9.035 2°18.574 19.249664 3.729074 28.647221 8.724802
2004-05-12 08:43:26 51°9.059 2°18.222 19.253304 3.728652 28.640464 8.691093
2004-05-12 08:44:26 51°9.084 2°17.864 19.254367 3.728863 28.641736 8.758512
2004-05-12 08:45:27 51°9.108 2°17.5 19.258375 3.728652 28.641517 8.691093
2004-05-12 08:46:28 51°9.133 2°17.134 19.265572 3.728968 28.641582 8.691093
2004-05-12 08:47:27 51°9.156 2°16.78 19.268312 3.728652 28.640464 8.724802
2004-05-12 08:48:27 51°9.18 2°16.419 19.275385 3.729074 28.643534 8.724802
2004-05-12 08:49:27 51°9.2 2°16.055 19.280087 3.72939 28.642546 8.691093
2004-05-12 08:50:27 51°9.207 2°15.694 19.286055 3.729495 28.643445 8.691093
2004-05-12 08:51:26 51°9.213 2°15.338 19.288917 3.729179 28.64338 8.657383
2004-05-12 08:52:26 51°9.208 2°14.98 19.295252 3.729074 28.638796 8.724802
2004-05-12 08:53:28 51°9.175 2°14.618 19.296928 3.72939 28.643072 8.657383
2004-05-12 08:54:28 51°9.049 2°14.324 19.301097 3.72939 28.643072 8.758512
2004-05-12 08:55:27 51°8.915 2°14.047 19.307064 3.729601 28.645397 8.691093
2004-05-12 08:56:27 51°8.78 2°13.76 19.312254 3.729601 28.640133 8.724802
2004-05-12 08:57:28 51°8.64 2°13.471 19.321406 3.730022 28.644255 8.724802
2004-05-12 08:58:28 51°8.5 2°13.185 19.317198 3.730022 28.638992 8.691093
2004-05-12 08:59:25 51°8.371 2°12.909 19.324757 3.730022 28.642149 8.724802
2004-05-12 09:00:28 51°8.227 2°12.608 19.333908 3.730444 28.643113 8.758512
2004-05-12 09:01:25 51°8.093 2°12.336 19.338565 3.730338 28.64274 8.691093
2004-05-12 09:02:26 51°7.951 2°12.047 19.348163 3.730233 28.642368 8.724802
2004-05-12 09:03:36 51°7.769 2°11.735 19.358046 3.730022 28.643202 8.724802
2004-05-12 09:04:37 51°7.612 2°11.463 19.361844 3.729917 28.642829 8.724802
2004-05-12 09:05:42 51°7.446 2°11.163 19.358822 3.73076 28.648967 8.691093
2004-05-12 09:06:42 51°7.288 2°10.899 19.364253 3.731181 28.650457 8.691093
2004-05-12 09:07:42 51°7.138 2°10.623 19.376461 3.73097 28.645501 8.691093
2004-05-12 09:08:42 51°7.005 2°10.33 19.384912 3.731181 28.646246 8.724802
2004-05-12 09:09:42 51°6.883 2°10.017 19.385279 3.731287 28.646092 8.657383
2004-05-12 09:10:41 51°6.765 2°9.707 19.391647 3.731076 28.644821 8.724802
2004-05-12 09:11:42 51°6.641 2°9.394 19.394382 3.731603 28.64721 8.691093
2004-05-12 09:12:42 51°6.519 2°9.081 19.40185 3.731813 28.646902 8.724802
2004-05-12 09:13:42 51°6.412 2°8.757 19.404952 3.731392 28.643834 8.724802
2004-05-12 09:14:42 51°6.309 2°8.437 19.411848 3.732024 28.649225 8.691093
2004-05-12 09:15:42 51°6.271 2°8.243 19.414052 3.731708 28.644951 8.758512
2004-05-12 09:16:42 51°6.262 2°8.154 19.422661 3.73234 28.64929 8.691093
2004-05-12 09:17:42 51°6.254 2°8.108 19.427801 3.731813 28.645324 8.724802
2004-05-12 09:18:41 51°6.249 2°8.037 19.433309 3.731813 28.644798 8.724802
2004-05-12 09:19:42 51°6.242 2°7.948 19.439142 3.731603 28.643001 8.657383
2004-05-12 09:20:43 51°6.232 2°7.864 19.443751 3.732024 28.647121 8.657383
2004-05-12 09:21:51 51°6.219 2°7.776 13.37277 3.593139 27.573205 10.208016
2004-05-12 09:22:51 51°6.208 2°7.7 11.313785 3.923384 34.04644 18.466819
2004-05-12 09:23:50 51°6.198 2°7.628 11.243596 3.873532 34.094594 18.837623
2004-05-12 09:24:51 51°6.192 2°7.553 11.199816 3.867314 34.125122 18.905042
2004-05-12 09:25:49 51°6.186 2°7.477 11.187427 3.869317 34.186774 18.871332
2004-05-12 09:26:58 51°6.169 2°7.378 11.169646 3.868369 34.206186 18.871332
2004-05-12 09:27:58 51°6.148 2°7.294 11.165822 3.868896 34.222458 18.938751
2004-05-12 09:28:59 51°6.122 2°7.21 11.169369 3.870688 34.260838 18.635366
2004-05-12 09:30:05 51°6.094 2°7.117 11.151215 3.869951 34.266879 18.3994
2004-05-12 09:31:11 51°6.066 2°7.025 11.147113 3.869424 34.272043 17.927469
2004-05-12 09:32:11 51°6.039 2°6.942 11.140061 3.869529 34.273825 17.927469
2004-05-12 09:33:13 51°6.013 2°6.855 11.14278 3.867738 34.26798 17.792631
2004-05-12 09:34:11 51°5.99 2°6.772 11.149187 3.867421 34.26708 17.826341
2004-05-12 09:35:16 51°5.97 2°6.677 11.145684 3.866156 34.253102 17.657794
2004-05-12 09:36:21 51°5.958 2°6.58 11.144855 3.867 34.263655 17.354409
2004-05-12 09:37:26 51°5.949 2°6.481 11.138817 3.866473 34.261412 17.28699
2004-05-12 09:38:30 51°5.944 2°6.383 11.142919 3.866578 34.263195 17.219571
2004-05-12 09:39:29 51°5.937 2°6.293 11.141997 3.866367 34.262594 16.882477
2004-05-12 09:40:31 51°5.93 2°6.198 11.142181 3.866367 34.258889 16.646512
2004-05-12 09:41:29 51°5.923 2°6.11 11.144808 3.86584 34.25961 16.74764
2004-05-12 09:42:31 51°5.916 2°6.015 11.141905 3.864365 34.247251 16.848768
2004-05-12 09:43:30 51°5.916 2°5.929 11.148864 3.865524 34.257967 16.815059
2004-05-12 09:44:38 51°5.921 2°5.831 11.142227 3.86584 34.262574 16.680221
2004-05-12 09:45:42 51°5.928 2°5.738 11.139738 3.864997 34.257947 16.477965
2004-05-12 09:46:46 51°5.935 2°5.665 11.138494 3.86584 34.264057 17.084734
2004-05-12 09:47:45 51°5.94 2°5.606 11.140752 3.866051 34.263916 16.983606
2004-05-12 09:48:52 51°6.012 2°5.538 11.145684 3.864681 34.24519 17.522956
2004-05-12 09:49:50 51°6.05 2°5.575 11.133654 3.86447 34.257927 17.657794
2004-05-12 09:50:54 51°6.056 2°5.644 11.129597 3.865524 34.277247 17.86005
2004-05-12 09:51:54 51°6.067 2°5.707 11.134668 3.86563 34.27458 18.197144
2004-05-12 09:52:53 51°6.08 2°5.773 11.144716 3.866262 34.274897 17.994888
2004-05-12 09:53:54 51°6.088 2°5.856 11.137849 3.866789 34.280107 17.522956
2004-05-12 09:54:57 51°6.102 2°5.94 11.147989 3.866895 34.279665 17.118443
2004-05-12 09:55:57 51°6.117 2°6.012 11.143334 3.867421 34.278941 17.017315
2004-05-12 09:56:59 51°6.122 2°6.08 11.140568 3.867211 34.282791 16.983606
2004-05-12 09:57:59 51°6.121 2°6.149 11.137526 3.867422 34.283391 16.882477
2004-05-12 09:58:57 51°6.113 2°6.212 11.138817 3.867949 34.291569 16.882477
2004-05-12 09:59:57 51°6.104 2°6.277 11.138125 3.867422 34.286359 16.545383
2004-05-12 10:00:59 51°6.098 2°6.344 11.145961 3.867105 34.281007 16.612802
2004-05-12 10:01:59 51°6.094 2°6.408 11.143472 3.867105 34.278782 16.71393
2004-05-12 10:02:59 51°6.091 2°6.473 11.146468 3.867422 34.281166 16.646512
2004-05-12 10:03:59 51°6.09 2°6.541 11.144394 3.866473 34.274756 16.74764
2004-05-12 10:04:59 51°6.088 2°6.607 11.144209 3.867211 34.285017 16.444255
2004-05-12 10:05:59 51°6.089 2°6.67 11.144209 3.867105 34.279524 16.781349
2004-05-12 10:06:57 51°6.093 2°6.73 11.14891 3.866578 34.273573 17.185862
2004-05-12 10:07:59 51°6.105 2°6.787 11.143702 3.866895 34.27744 17.893759
2004-05-12 10:08:57 51°6.116 2°6.842 11.149049 3.867105 34.278041 18.331982
2004-05-12 10:09:57 51°6.128 2°6.896 11.144209 3.865524 34.258708 18.567947
2004-05-12 10:10:59 51°6.141 2°6.952 11.144117 3.864997 34.254241 18.702785
2004-05-12 10:11:59 51°6.146 2°7.012 11.143518 3.862784 34.237553 18.601657
2004-05-12 10:12:59 51°6.146 2°7.073 11.150385 3.86057 34.220122 18.601657
2004-05-12 10:13:59 51°6.15 2°7.131 11.153058 3.861729 34.221954 19.275845
2004-05-12 10:14:57 51°6.159 2°7.182 11.157896 3.865735 34.26005 19.680358
2004-05-12 10:15:59 51°6.171 2°7.234 11.159141 3.863205 34.234313 19.983742
2004-05-12 10:16:59 51°6.187 2°7.28 11.153012 3.861519 34.21765 19.916324
2004-05-12 10:17:59 51°6.209 2°7.317 11.1602 3.864048 34.239682 20.253418
2004-05-12 10:18:59 51°6.226 2°7.355 11.158542 3.856881 34.166661 20.354546
2004-05-12 10:20:06 51°6.234 2°7.406 11.160108 3.857829 34.179726 19.916324
2004-05-12 10:21:06 51°6.238 2°7.457 11.161491 3.864365 34.239844 20.017452
2004-05-12 10:22:05 51°6.243 2°7.508 11.163656 3.861835 34.210414 20.69164
2004-05-12 10:23:06 51°6.249 2°7.568 11.169047 3.861202 34.202688 20.556802
2004-05-12 10:24:05 51°6.258 2°7.632 11.166052 3.854562 34.131211 20.995024
2004-05-12 10:25:06 51°6.271 2°7.693 11.18319 3.862467 34.210003 22.107435
2004-05-12 10:26:05 51°6.29 2°7.741 11.186414 3.858356 34.162764 23.860324
2004-05-12 10:27:06 51°6.312 2°7.79 11.186828 3.861413 34.187768 24.871606
2004-05-12 10:28:05 51°6.33 2°7.843 11.181531 3.859621 34.173035 25.714341
2004-05-12 10:29:06 51°6.344 2°7.902 11.184525 3.848764 34.06589 25.74805
2004-05-12 10:30:05 51°6.35 2°7.925 11.183374 3.853297 34.108403 26.152563
2004-05-12 10:31:06 51°6.349 2°7.928 11.182545 3.847499 34.051939 26.927879
2004-05-12 10:32:06 51°6.339 2°7.92 11.184249 3.850451 34.084004 27.43352
2004-05-12 10:33:06 51°6.36 2°7.973 11.192263 3.854245 34.117764 27.399811
2004-05-12 10:34:07 51°6.426 2°8.154 11.187519 3.860042 34.164644 27.264973
2004-05-12 10:35:07 51°6.513 2°8.431 11.181301 3.85414 34.118198 28.00658
2004-05-12 10:36:06 51°6.6 2°8.723 11.169876 3.857724 34.155783 27.905452
2004-05-12 10:37:07 51°6.692 2°9.027 11.157113 3.853613 34.127749 26.961589
2004-05-12 10:38:07 51°6.782 2°9.323 11.146744 3.851821 34.117436 24.60193
2004-05-12 10:39:07 51°6.873 2°9.622 11.144993 3.848238 34.09385 22.95017
2004-05-12 10:40:07 51°6.955 2°9.924 11.14444 3.850135 34.114065 22.680494
2004-05-12 10:41:07 51°7.041 2°10.227 11.144348 3.851189 34.124476 22.882751
2004-05-12 10:42:05 51°7.123 2°10.521 11.13877 3.850662 34.120747 23.48952
2004-05-12 10:43:07 51°7.212 2°10.834 11.129966 3.851505 34.133508 22.646785
2004-05-12 10:44:07 51°7.299 2°11.136 11.129551 3.852243 34.148188 21.80405
2004-05-12 10:45:07 51°7.385 2°11.439 11.1455 3.848343 34.108913 22.983879
2004-05-12 10:46:07 51°7.469 2°11.74 11.141444 3.846235 34.074809 26.388529
2004-05-12 10:47:07 51°7.555 2°12.041 11.130565 3.855616 34.177824 25.882888
2004-05-12 10:48:07 51°7.655 2°12.308 11.105805 3.854668 34.184728 23.556939
2004-05-12 10:49:07 51°7.723 2°12.39 11.088463 3.851927 34.182063 19.57923
2004-05-12 10:50:07 51°7.74 2°12.41 11.070517 3.854036 34.214785 16.208289
2004-05-12 10:51:07 51°7.768 2°12.446 11.06498 3.85372 34.22427 15.500392
2004-05-12 10:52:07 51°7.807 2°12.494 11.054596 3.857093 34.260641 15.230717
2004-05-12 10:53:07 51°7.84 2°12.558 11.049196 3.854668 34.244806 14.253144
2004-05-12 10:54:07 51°7.876 2°12.612 11.049104 3.854247 34.242116 14.758785
2004-05-12 10:55:07 51°7.906 2°12.678 11.052335 3.853931 34.239727 15.06217
2004-05-12 10:56:07 51°7.936 2°12.744 11.045827 3.855617 34.259406 15.163298
2004-05-12 10:57:07 51°7.973 2°12.798 11.060873 3.852139 34.216781 15.365554
2004-05-12 10:58:07 51°8.013 2°12.841 11.058427 3.853825 34.229769 15.63523
2004-05-12 10:59:07 51°8.036 2°12.912 11.049842 3.855933 34.255104 15.837486
2004-05-12 11:00:07 51°8.068 2°12.982 11.054319 3.874274 34.44057 16.073452
2004-05-12 11:01:07 51°8.101 2°13.053 11.049242 3.874169 34.437282 15.803777
2004-05-12 11:02:07 51°8.133 2°13.126 11.049427 3.875012 34.450127 16.477965
2004-05-12 11:03:07 51°8.166 2°13.194 11.040795 3.87301 34.434757 16.612802
2004-05-12 11:04:07 51°8.199 2°13.261 11.043242 3.87322 34.437594 16.815059
2004-05-12 11:05:07 51°8.234 2°13.324 11.039826 3.872693 34.433116 17.522956
2004-05-12 11:06:07 51°8.269 2°13.383 11.039964 3.873537 34.441477 17.624084
2004-05-12 11:07:07 51°8.306 2°13.44 11.044396 3.872693 34.433864 17.624084
2004-05-12 11:08:07 51°8.346 2°13.498 11.042826 3.872693 34.434611 18.331982
2004-05-12 11:09:07 51°8.382 2°13.559 11.039503 3.872693 34.436106 18.669076
2004-05-12 11:10:07 51°8.421 2°13.614 11.037794 3.872799 34.439395 18.601657
2004-05-12 11:11:07 51°8.46 2°13.662 11.034932 3.872377 34.431476 18.97246
2004-05-12 11:12:07 51°8.496 2°13.711 11.039364 3.872588 34.434314 18.770204
2004-05-12 11:13:07 51°8.535 2°13.759 11.035994 3.872483 34.434016 17.961178
2004-05-12 11:14:15 51°8.583 2°13.808 11.045642 3.870691 34.412512 18.096016
2004-05-12 11:15:15 51°8.622 2°13.854 11.04518 3.871639 34.421171 17.624084
2004-05-12 11:16:15 51°8.652 2°13.913 11.04795 3.873009 34.431019 16.916187
2004-05-12 11:17:15 51°8.672 2°13.982 11.04795 3.874064 34.440722 16.579093
2004-05-12 11:18:15 51°8.688 2°14.054 11.06078 3.873431 34.431463 15.736358
2004-05-12 11:19:14 51°8.718 2°14.108 11.065626 3.874696 34.432793 16.781349
2004-05-12 11:20:15 51°8.751 2°14.16 11.065164 3.875434 34.43637 16.579093
2004-05-12 11:21:15 51°8.781 2°14.213 11.065949 3.875644 34.442942 15.904905
2004-05-12 11:22:15 51°8.803 2°14.272 11.060826 3.875644 34.439206 14.725076
2004-05-12 11:23:15 51°8.815 2°14.34 11.06378 3.875328 34.44205 14.4554
2004-05-12 11:24:14 51°8.814 2°14.412 11.063364 3.875539 34.441897 14.017178
2004-05-12 11:25:15 51°8.8 2°14.45 11.05575 3.875223 34.443247 13.511537
2004-05-12 11:26:15 51°8.774 2°14.473 11.067518 3.875644 34.442195 14.118306
2004-05-12 11:27:15 51°8.716 2°14.442 11.065256 3.659903 32.309762 15.298136
2004-05-12 11:28:15 51°8.668 2°14.366 11.061103 3.650946 32.228126 15.129589
2004-05-12 11:29:15 51°8.631 2°14.284 11.059673 3.774564 33.444057 15.298136
2004-05-12 11:30:15 51°8.603 2°14.201 11.060226 3.747056 33.172771 15.904905
2004-05-12 11:31:15 51°8.579 2°14.123 11.052058 3.6324 32.049626 16.71393
2004-05-12 11:32:13 51°8.555 2°14.051 11.050442 3.804075 33.740582 17.28699
2004-05-12 11:33:15 51°8.522 2°13.981 11.047996 3.791849 33.620522 17.624084
2004-05-12 11:34:15 51°8.484 2°13.915 11.043242 3.667701 32.399674 17.994888
2004-05-12 11:35:15 51°8.445 2°13.85 11.037841 3.787211 33.584921 18.43311
2004-05-12 11:36:15 51°8.406 2°13.779 11.039456 3.810821 33.823394 19.275845
2004-05-12 11:37:15 51°8.368 2°13.708 11.033132 3.771718 33.439908 19.54552
2004-05-12 11:38:15 51°8.332 2°13.633 11.037333 3.76139 33.338669 19.57923
2004-05-12 11:39:15 51°8.292 2°13.566 11.036548 3.784577 33.565449 18.803913
2004-05-12 11:40:13 51°8.248 2°13.516 11.033963 3.871428 34.425806 18.331982
2004-05-12 11:41:15 51°8.197 2°13.471 11.033316 3.872061 34.43133 17.590375
2004-05-12 11:42:14 51°8.147 2°13.423 11.031008 3.872061 34.432825 17.657794
2004-05-12 11:43:15 51°8.096 2°13.372 11.034194 3.871534 34.430589 17.792631
2004-05-12 11:44:15 51°8.046 2°13.322 11.028007 3.871534 34.427599 17.994888
2004-05-12 11:45:15 51°7.997 2°13.264 11.036363 3.871007 34.423868 18.43311
2004-05-12 11:46:15 51°7.952 2°13.2 11.033132 3.871639 34.426402 18.43311
2004-05-12 11:47:15 51°7.908 2°13.139 11.034609 3.869531 34.406993 18.770204
2004-05-12 11:48:15 51°7.865 2°13.084 11.029023 3.869847 34.41237 19.410683
2004-05-12 11:49:14 51°7.826 2°13.021 11.040934 3.871323 34.423266 19.309554
2004-05-12 11:50:15 51°7.792 2°12.949 11.030962 3.871218 34.419232 19.174717
2004-05-12 11:51:15 51°7.764 2°12.873 11.037564 3.870901 34.416844 18.837623
2004-05-12 11:52:15 51°7.734 2°12.801 11.040795 3.871007 34.414153 19.073589
2004-05-12 11:53:15 51°7.702 2°12.729 11.038487 3.870796 34.413557 19.039879
2004-05-12 11:54:15 51°7.669 2°12.659 11.042595 3.870374 34.407137 19.478101
2004-05-12 11:55:15 51°7.634 2°12.591 11.040287 3.87069 34.408031 19.073589
2004-05-12 11:56:15 51°7.602 2°12.519 11.045226 3.871007 34.408178 19.343264
2004-05-12 11:57:13 51°7.574 2°12.449 11.049427 3.870901 34.408627 19.00617
2004-05-12 11:58:15 51°7.546 2°12.372 11.044257 3.87048 34.403701 19.00617
2004-05-12 11:59:15 51°7.521 2°12.297 11.050581 3.870796 34.401609 18.770204
2004-05-12 12:00:15 51°7.503 2°12.22 11.051596 3.870374 34.39967 18.601657
2004-05-12 12:01:15 51°7.49 2°12.145 11.04555 3.870796 34.403849 18.197144
2004-05-12 12:02:15 51°7.479 2°12.073 11.047581 3.87048 34.402954 17.590375
2004-05-12 12:03:15 51°7.472 2°11.989 11.056027 3.870796 34.403102 17.354409
2004-05-12 12:04:14 51°7.475 2°11.892 11.044534 3.871007 34.404445 17.084734
2004-05-12 12:05:15 51°7.482 2°11.79 11.04555 3.871217 34.409521 16.545383
2004-05-12 12:06:15 51°7.499 2°11.695 11.051873 3.871955 34.417582 15.60152
2004-05-12 12:07:15 51°7.515 2°11.623 11.042734 3.872377 34.424002 16.039742
2004-05-12 12:08:15 51°7.536 2°11.595 11.043195 3.872799 34.427435 16.781349
2004-05-12 12:09:15 51°7.553 2°11.627 11.042918 3.872166 34.43088 17.961178
2004-05-12 12:10:15 51°7.614 2°11.766 11.044349 3.872377 34.432971 18.129725
2004-05-12 12:11:15 51°7.738 2°11.984 11.038856 3.872693 34.430874 17.961178
2004-05-12 12:12:15 51°7.872 2°12.223 11.039226 3.872482 34.431773 17.624084
2004-05-12 12:13:13 51°8 2°12.458 11.038348 3.871955 34.428042 17.691503
2004-05-12 12:14:15 51°8.134 2°12.712 11.036871 3.872377 34.430728 17.455537
2004-05-12 12:15:15 51°8.252 2°12.974 11.036548 3.872061 34.429835 18.062306
2004-05-12 12:16:15 51°8.368 2°13.238 11.04001 3.871639 34.425654 19.275845
2004-05-12 12:17:15 51°8.473 2°13.512 11.046334 3.870901 34.417591 19.242136
2004-05-12 12:18:15 51°8.567 2°13.795 11.064011 3.872588 34.420863 17.994888
2004-05-12 12:19:15 51°8.624 2°14.097 11.08242 3.875012 34.431445 16.444255
2004-05-12 12:20:15 51°8.562 2°14.376 11.084358 3.877331 34.439484 14.118306
2004-05-12 12:21:15 51°8.441 2°14.634 11.081497 3.876277 34.432776 13.814922
2004-05-12 12:22:15 51°8.271 2°14.832 11.080067 3.87712 34.437396 14.522819
2004-05-12 12:23:14 51°8.049 2°14.859 11.070978 3.874801 34.412189 16.579093
2004-05-12 12:24:15 51°7.822 2°14.706 11.045919 3.872166 34.412203 18.298272
2004-05-12 12:25:15 51°7.655 2°14.469 11.044349 3.867212 34.369823 18.837623
2004-05-12 12:26:15 51°7.547 2°14.406 11.038718 3.867528 34.38415 18.43311
2004-05-12 12:27:15 51°7.496 2°14.395 11.047488 3.867528 34.38415 17.051024
2004-05-12 12:28:15 51°7.468 2°14.423 11.042965 3.869531 34.400271 16.815059
2004-05-12 12:29:15 51°7.463 2°14.472 11.054135 3.871112 34.413704 16.039742
2004-05-12 12:30:13 51°7.471 2°14.522 11.071117 3.867106 34.365795 16.17458
2004-05-12 12:31:15 51°7.483 2°14.577 11.076469 3.872377 34.401604 15.095879
2004-05-12 12:32:15 51°7.486 2°14.639 11.075961 3.87459 34.425027 13.781212
2004-05-12 12:33:15 51°7.49 2°14.7 11.07227 3.871955 34.397427 14.017178
2004-05-12 12:34:14 51°7.495 2°14.76 11.079837 3.873009 34.4019 14.387982
2004-05-12 12:35:14 51°7.494 2°14.822 11.078453 3.871217 34.383406 14.792494
2004-05-12 12:36:17 51°7.492 2°14.89 11.081774 3.870058 34.371922 15.399264
2004-05-12 12:37:16 51°7.489 2°14.956 11.084957 3.871744 34.383407 16.275708
2004-05-12 12:38:16 51°7.486 2°15.023 11.083066 3.875433 34.423676 16.309418
2004-05-12 12:39:16 51°7.485 2°15.09 11.082651 3.875328 34.421886 16.477965
2004-05-12 12:40:17 51°7.487 2°15.155 11.082189 3.875012 34.415769 16.241999
2004-05-12 12:41:16 51°7.494 2°15.211 11.08934 3.874485 34.409057 16.511674
2004-05-12 12:42:17 51°7.5 2°15.268 11.084727 3.874168 34.405925 16.882477
2004-05-12 12:43:16 51°7.506 2°15.326 11.078222 3.873325 34.397574 17.489247
2004-05-12 12:44:16 51°7.51 2°15.387 11.086941 3.872693 34.395785 18.331982
2004-05-12 12:45:16 51°7.516 2°15.447 11.089755 3.872904 34.39489 19.073589
2004-05-12 12:46:13 51°7.524 2°15.506 11.082559 3.872482 34.390714 19.680358
2004-05-12 12:47:17 51°7.534 2°15.572 11.083066 3.87185 34.387433 20.017452
2004-05-12 12:48:15 51°7.544 2°15.63 11.090216 3.871744 34.38788 20.927606
2004-05-12 12:49:15 51°7.557 2°15.687 11.085142 3.872166 34.384601 21.062443
2004-05-12 12:50:16 51°7.567 2°15.743 11.085649 3.872271 34.384899 20.388255
2004-05-12 12:51:17 51°7.58 2°15.8 11.09612 3.872482 34.388478 19.714067
2004-05-12 12:52:17 51°7.597 2°15.852 11.090862 3.873325 34.394591 18.938751
2004-05-12 12:53:16 51°7.616 2°15.905 11.082143 3.874168 34.40145 17.691503
2004-05-12 12:54:17 51°7.636 2°15.959 11.084727 3.873852 34.405031 17.084734
2004-05-12 12:55:17 51°7.655 2°16.011 11.081128 3.874168 34.408163 16.275708
2004-05-12 12:56:17 51°7.674 2°16.065 11.085142 3.872904 34.397127 15.871195
2004-05-12 12:57:15 51°7.694 2°16.116 11.079468 3.86679 34.339563 15.63523
2004-05-12 12:58:17 51°7.714 2°16.173 11.085142 3.868793 34.360141 15.432973
2004-05-12 12:59:15 51°7.733 2°16.225 11.089478 3.874801 34.412935 15.702648
2004-05-12 13:00:17 51°7.756 2°16.274 11.087126 3.875012 34.415769 15.331845
2004-05-12 13:01:15 51°7.781 2°16.315 11.091692 3.875223 34.417857 15.06217
2004-05-12 13:02:17 51°7.804 2°16.358 11.08588 3.875433 34.419198 14.961042
2004-05-12 13:03:15 51°7.828 2°16.398 11.086803 3.875328 34.418901 14.994751
2004-05-12 13:04:17 51°7.847 2°16.423 11.089986 3.875328 34.418901 14.859913
2004-05-12 13:05:17 51°7.851 2°16.426 11.090078 3.875223 34.41338 15.298136
2004-05-12 13:06:17 51°7.846 2°16.42 11.088694 3.875433 34.419945 16.275708
2004-05-12 13:07:17 51°7.882 2°16.473 11.081867 3.875433 34.421437 17.084734
2004-05-12 13:08:22 51°7.989 2°16.643 11.087264 3.87575 34.425316 16.511674
2004-05-12 13:09:24 51°8.132 2°16.871 11.088094 3.875855 34.421882 18.096016
2004-05-12 13:10:25 51°8.267 2°17.108 11.080252 3.874696 34.416367 20.995024
2004-05-12 13:11:25 51°8.379 2°17.359 11.086664 3.873536 34.399662 21.736631
2004-05-12 13:12:25 51°8.47 2°17.63 11.087033 3.873325 34.402049 22.613076
2004-05-12 13:13:30 51°8.514 2°17.955 11.09077 3.875539 34.417258 20.860187
2004-05-12 13:14:29 51°8.527 2°18.264 11.098888 3.879544 34.449462 15.331845
2004-05-12 13:15:29 51°8.48 2°18.575 11.09838 3.881442 34.466758 13.747503
2004-05-12 13:16:33 51°8.459 2°18.914 11.100548 3.880598 34.463635 14.725076
2004-05-12 13:17:33 51°8.443 2°19.229 11.090631 3.877436 34.43381 17.792631
2004-05-12 13:18:37 51°8.463 2°19.371 11.097458 3.874485 34.408311 22.006306
2004-05-12 13:19:37 51°8.482 2°19.412 11.11738 3.875749 34.408903 21.365828
2004-05-12 13:20:37 51°8.495 2°19.447 11.123881 3.876487 34.4013 20.489383
2004-05-12 13:21:37 51°8.503 2°19.498 11.116965 3.878174 34.411283 20.69164
2004-05-12 13:22:37 51°8.503 2°19.559 11.108987 3.879755 34.440354 19.848905
2004-05-12 13:23:37 51°8.51 2°19.617 11.117472 3.877963 34.419632 19.747777
2004-05-12 13:24:37 51°8.521 2°19.672 11.115581 3.878384 34.417841 20.084871
2004-05-12 13:25:37 51°8.527 2°19.731 11.105021 3.877857 34.419334 19.983742
2004-05-12 13:26:37 51°8.529 2°19.793 11.108203 3.876276 34.41263 20.354546
2004-05-12 13:27:45 51°8.531 2°19.863 11.107466 3.877858 34.4253 20.590512
2004-05-12 13:28:47 51°8.531 2°19.927 11.109402 3.876698 34.413076 20.287127
2004-05-12 13:30:01 51°8.534 2°20.005 11.107788 3.87712 34.415758 20.69164
2004-05-12 13:31:03 51°8.539 2°20.07 11.10539 3.877014 34.416952 21.500665
2004-05-12 13:32:09 51°8.542 2°20.14 11.111293 3.877647 34.42023 20.65793
2004-05-12 13:33:13 51°8.543 2°20.209 11.108711 3.878174 34.420973 20.523093
2004-05-12 13:34:15 51°8.546 2°20.274 11.109033 3.878385 34.425297 19.714067
2004-05-12 13:35:21 51°8.552 2°20.337 11.114751 3.878806 34.427979 20.051161
2004-05-12 13:36:25 51°8.564 2°20.395 11.129136 3.879649 34.427377 19.646648
2004-05-12 13:37:25 51°8.576 2°20.451 11.12116 3.879544 34.426334 19.107298
2004-05-12 13:38:26 51°8.586 2°20.505 11.122959 3.880071 34.43155 17.792631
2004-05-12 13:39:25 51°8.595 2°20.559 11.126047 3.880493 34.437214 17.421828
2004-05-12 13:40:26 51°8.608 2°20.61 11.131672 3.880387 34.431697 17.758922
2004-05-12 13:41:26 51°8.625 2°20.658 11.130289 3.881547 34.439442 17.994888
2004-05-12 13:42:26 51°8.64 2°20.702 11.131533 3.881652 34.441231 16.612802
2004-05-12 13:43:25 51°8.655 2°20.749 11.136973 3.882601 34.446144 16.579093
2004-05-12 13:44:26 51°8.672 2°20.801 11.134023 3.883128 34.451359 15.466683
2004-05-12 13:45:25 51°8.69 2°20.856 11.13582 3.883233 34.453147 14.185725
2004-05-12 13:46:25 51°8.711 2°20.913 11.138263 3.883971 34.457465 13.309281
2004-05-12 13:47:25 51°8.731 2°20.975 11.143518 3.885025 34.468641 13.039606
2004-05-12 13:48:26 51°8.752 2°21.032 11.146975 3.885868 34.467285 12.466546
2004-05-12 13:49:25 51°8.78 2°21.08 11.164025 3.887028 34.472788 12.028324
2004-05-12 13:50:25 51°8.809 2°21.128 11.162735 3.887344 34.470695 11.421554
2004-05-12 13:51:29 51°8.836 2°21.18 11.153196 3.888503 34.482163 10.915913
2004-05-12 13:52:31 51°8.86 2°21.228 11.15891 3.888082 34.479484 11.11817
2004-05-12 13:53:31 51°8.882 2°21.269 11.149694 3.887871 34.477399 11.286717
2004-05-12 13:54:37 51°8.899 2°21.275 11.140338 3.888293 34.489031 11.623811
2004-05-12 13:55:47 51°8.917 2°21.252 11.127062 3.88629 34.483397 13.005896
2004-05-12 13:56:46 51°8.965 2°21.289 11.12199 3.886185 34.484593 13.208153
2004-05-12 13:57:47 51°9.051 2°21.422 11.108065 3.884498 34.488812 13.140734
2004-05-12 13:58:53 51°9.18 2°21.618 11.098334 3.883655 34.488681 12.837349
2004-05-12 13:59:53 51°9.315 2°21.833 11.104145 3.883234 34.484505 12.837349
2004-05-12 14:00:58 51°9.467 2°22.073 11.09921 3.883761 34.485241 12.635093
2004-05-12 14:01:57 51°9.604 2°22.287 11.079975 3.883234 34.489737 12.23058
2004-05-12 14:02:57 51°9.743 2°22.507 11.064057 3.881758 34.49082 12.028324
2004-05-12 14:03:57 51°9.88 2°22.725 11.062811 3.880915 34.493685 10.410272
2004-05-12 14:05:03 51°10.029 2°22.965 11.057088 3.880915 34.497427 9.904631
2004-05-12 14:06:03 51°10.156 2°23.197 11.054319 3.880388 34.49819 10.241725
2004-05-12 14:07:09 51°10.291 2°23.459 11.060596 3.88081 34.503868 9.97205
2004-05-12 14:08:19 51°10.404 2°23.774 11.065256 3.881758 34.502792 9.230443
2004-05-12 14:09:17 51°10.497 2°24.041 11.078037 3.881442 34.499657 8.927059
2004-05-12 14:10:18 51°10.596 2°24.323 11.089247 3.882707 34.499473 8.724802
2004-05-12 14:11:22 51°10.702 2°24.617 11.107419 3.88355 34.49287 8.893349
2004-05-12 14:12:22 51°10.764 2°24.922 11.113599 3.884815 34.488954 8.994477
2004-05-12 14:13:25 51°10.803 2°25.25 11.112999 3.885131 34.491338 9.163024
2004-05-12 14:14:26 51°10.843 2°25.569 11.113968 3.885131 34.49358 9.061896
2004-05-12 14:15:25 51°10.884 2°25.877 11.114244 3.885763 34.493864 9.702375
2004-05-12 14:16:25 51°10.926 2°26.187 11.113737 3.884604 34.487614 9.837212
2004-05-12 14:17:25 51°10.971 2°26.499 11.122728 3.886185 34.501028 9.803503
2004-05-12 14:18:25 51°11.016 2°26.808 11.141029 3.885763 34.4849 9.769794
2004-05-12 14:19:25 51°11.063 2°27.118 11.151076 3.886922 34.48443 9.39899
2004-05-12 14:20:26 51°11.153 2°27.405 11.16877 3.887766 34.47934 9.264153
2004-05-12 14:21:26 51°11.249 2°27.684 11.166236 3.889136 34.489164 9.163024
2004-05-12 14:22:25 51°11.327 2°27.968 11.146237 3.88882 34.488275 9.297862
2004-05-12 14:23:25 51°11.403 2°28.259 11.150247 3.888398 34.491567 9.028187
2004-05-12 14:24:25 51°11.476 2°28.549 11.152367 3.88766 34.485013 8.85964
2004-05-12 14:25:25 51°11.549 2°28.842 11.171857 3.888609 34.483951 8.556255
2004-05-12 14:26:26 51°11.623 2°29.14 11.201336 3.891876 34.490904 7.410136
2004-05-12 14:27:26 51°11.693 2°29.435 11.220812 3.893141 34.488498 6.60111
2004-05-12 14:28:25 51°11.762 2°29.725 11.233056 3.894089 34.47776 6.5674
2004-05-12 14:29:25 51°11.832 2°30.023 11.246127 3.895881 34.482056 6.533691
2004-05-12 14:30:25 51°11.904 2°30.323 11.265728 3.89704 34.478622 6.668529
2004-05-12 14:31:25 51°11.975 2°30.625 11.287392 3.8982 34.474448 6.904494
2004-05-12 14:32:26 51°12.045 2°30.932 11.315624 3.899886 34.468791 6.735947
2004-05-12 14:33:25 51°12.113 2°31.226 11.367366 3.902732 34.456025 5.792084
2004-05-12 14:34:25 51°12.183 2°31.526 11.411218 3.907791 34.468038 4.949349
2004-05-12 14:35:26 51°12.255 2°31.833 11.447104 3.908845 34.439928 5.219024
2004-05-12 14:36:25 51°12.327 2°32.133 11.478753 3.911269 34.431983 6.129178
2004-05-12 14:37:25 51°12.397 2°32.436 11.50461 3.91285 34.420944 6.634819
2004-05-12 14:38:25 51°12.472 2°32.739 11.551257 3.914114 34.405353 9.39899
2004-05-12 14:39:25 51°12.546 2°33.044 11.585969 3.91696 34.390577 9.061896
2004-05-12 14:40:26 51°12.621 2°33.352 11.603272 3.919068 34.386976 7.410136
2004-05-12 14:41:25 51°12.701 2°33.645 11.609359 3.9197 34.382888 7.17417
2004-05-12 14:42:25 51°12.782 2°33.941 11.591783 3.917697 34.365491 7.376426
2004-05-12 14:43:26 51°12.864 2°34.241 11.593706 3.917065 34.364438 6.466272
2004-05-12 14:44:26 51°12.946 2°34.536 11.614668 3.918857 34.37537 5.758375
2004-05-12 14:45:25 51°13.024 2°34.824 11.633748 3.917802 34.345993 5.421281
2004-05-12 14:46:25 51°13.104 2°35.116 11.658448 3.921492 34.357888 5.45499
2004-05-12 14:47:25 51°13.19 2°35.403 11.670566 3.922229 34.35558 6.02805
2004-05-12 14:48:25 51°13.28 2°35.69 11.682178 3.922229 34.339481 6.398853
2004-05-12 14:49:25 51°13.37 2°35.976 11.702153 3.924021 34.351131 7.005623
2004-05-12 14:50:26 51°13.46 2°36.267 11.720111 3.924864 34.337431 7.342717
2004-05-12 14:51:26 51°13.551 2°36.553 11.75277 3.926445 34.325839 6.668529
2004-05-12 14:52:26 51°13.641 2°36.84 11.789659 3.927604 34.307244 5.825794
2004-05-12 14:53:25 51°13.719 2°37.13 11.812566 3.93298 34.3312 4.612255
2004-05-12 14:54:26 51°13.788 2°37.439 11.825067 3.935088 34.33716 3.938067
2004-05-12 14:55:25 51°13.847 2°37.746 11.829582 3.934245 34.322399 3.499845
2004-05-12 14:56:25 51°13.906 2°38.056 11.847004 3.932031 34.287041 3.23017
2004-05-12 14:57:26 51°13.975 2°38.37 11.858814 3.932241 34.277468 3.095332
2004-05-12 14:58:26 51°14.013 2°38.694 11.856671 3.925811 34.209147 3.129042
2004-05-12 14:59:25 51°14.009 2°39.026 11.861914 3.928025 34.228491 3.297589
2004-05-12 15:00:26 51°13.985 2°39.369 11.867795 3.926549 34.214146 3.19646
2004-05-12 15:01:26 51°13.957 2°39.706 11.857036 3.927919 34.223117 3.162751
2004-05-12 15:02:25 51°13.97 2°40.032 11.8512 3.928552 34.237965 3.129042
2004-05-12 15:03:25 51°13.98 2°40.351 12.047893 3.898824 33.87812 5.050477
2004-05-12 15:04:26 51°13.992 2°40.67 12.141526 3.858556 33.355876 7.882067
2004-05-12 15:05:25 51°14.03 2°40.971 12.161817 3.850333 33.226385 8.219161
2004-05-12 15:06:25 51°14.071 2°41.277 12.177881 3.847592 33.170096 8.960768
2004-05-12 15:07:25 51°14.102 2°41.584 12.208184 3.848119 33.169594 8.960768
2004-05-12 15:08:25 51°14.129 2°41.89 12.227139 3.831043 32.974554 11.286717
2004-05-12 15:09:26 51°14.158 2°42.204 12.227683 3.833151 32.98924 12.297999
2004-05-12 15:10:25 51°14.185 2°42.505 12.232716 3.829357 32.948035 12.972187
2004-05-12 15:11:25 51°14.216 2°42.812 12.234076 3.829673 32.946928 13.039606
2004-05-12 15:12:25 51°14.243 2°43.121 12.24083 3.827776 32.930126 13.039606
2004-05-12 15:13:25 51°14.272 2°43.431 12.238065 3.830622 32.95395 12.938477
2004-05-12 15:14:25 51°14.301 2°43.743 12.235028 3.833573 32.980853 12.028324
2004-05-12 15:15:25 51°14.33 2°44.057 12.237703 3.835892 33.001696 11.320426
2004-05-12 15:16:25 51°14.363 2°44.375 12.248944 3.84464 33.08279 11.219298
2004-05-12 15:17:25 51°14.396 2°44.693 12.265033 3.839475 33.025678 12.500255
2004-05-12 15:18:25 51°14.434 2°45.014 12.290993 3.836945 32.980051 13.713794
2004-05-12 15:19:25 51°14.482 2°45.331 12.297516 3.825351 32.855324 15.534101
2004-05-12 15:20:25 51°14.528 2°45.653 12.297878 3.819343 32.789636 17.354409
2004-05-12 15:21:25 51°14.575 2°45.981 12.29969 3.817867 32.776897 17.86005
2004-05-12 15:22:25 51°14.623 2°46.316 12.297651 3.811227 32.714098 17.725212
2004-05-12 15:23:25 51°14.672 2°46.647 12.294843 3.811332 32.717156 17.354409
2004-05-12 15:24:25 51°14.719 2°46.974 12.285331 3.812913 32.737741 16.241999
2004-05-12 15:25:25 51°14.766 2°47.3 12.283156 3.808171 32.69376 15.871195
2004-05-12 15:26:26 51°14.812 2°47.631 12.271558 3.804482 32.668733 14.657657
2004-05-12 15:27:25 51°14.857 2°47.95 12.268386 3.800266 32.631152 14.590238
2004-05-12 15:28:25 51°14.903 2°48.275 12.282205 3.790569 32.536421 15.500392
2004-05-12 15:29:25 51°14.946 2°48.596 12.299191 3.783718 32.463498 16.579093
2004-05-12 15:30:26 51°14.988 2°48.92 12.307434 3.766855 32.287647 18.837623
2004-05-12 15:31:25 51°15.027 2°49.235 12.316717 3.748306 32.10137 21.568084
2004-05-12 15:32:25 51°15.06 2°49.558 12.324957 3.74936 32.106723 22.006306
2004-05-12 15:33:26 51°15.089 2°49.887 12.316219 3.737345 31.9916 22.781623
2004-05-12 15:34:25 51°15.12 2°50.204 12.319388 3.730179 31.926689 22.983879
2004-05-12 15:35:25 51°15.155 2°50.529 12.318664 3.727544 31.898274 22.91646
2004-05-12 15:36:25 51°15.189 2°50.849 12.326813 3.735975 31.975216 23.759195
2004-05-12 15:37:25 51°15.223 2°51.167 12.337542 3.710998 31.730223 29.388665
2004-05-12 15:38:25 51°15.251 2°51.487 12.341978 3.698246 31.607011 32.017999
2004-05-12 15:39:25 51°15.26 2°51.811 12.342521 3.682123 31.448576 36.400221
2004-05-12 15:40:26 51°15.249 2°52.144 12.342974 3.672428 31.353262 39.804871
2004-05-12 15:41:26 51°15.184 2°52.469 12.340937 3.672112 31.352222 49.749144
2004-05-12 15:42:26 51°15.104 2°52.788 12.358813 3.666737 31.297954 54.131366
2004-05-12 15:43:25 51°15.025 2°53.1 12.371618 3.662627 31.242032 62.862101
2004-05-12 15:44:25 51°14.925 2°53.412 12.384194 3.659993 31.213804 67.783674
2004-05-12 15:45:26 51°14.809 2°53.717 12.414222 3.655145 31.145156 68.053349
2004-05-12 15:46:26 51°14.703 2°54.026 12.432305 3.644712 31.025721 68.323024
2004-05-12 15:47:25 51°14.606 2°54.334 12.43696 3.636493 30.935117 52.850409
2004-05-12 15:48:26 51°14.523 2°54.658 12.44487 3.629433 30.867108 40.782443
2004-05-12 15:49:26 51°14.405 2°54.954 12.450021 3.629328 30.867395 47.052392
2004-05-12 15:50:25 51°14.314 2°55.176 12.458742 3.623743 30.821032 36.568768
2004-05-12 15:51:25 51°14.252 2°55.291 12.718307 1.715834 11.848805 5.994341
2004-05-12 15:52:25 51°14.199 2°55.36 12.857727 0.318994 1.802201 6.02805
2004-05-12 15:53:25 51°14.135 2°55.41 12.927215 0.242434 1.355406 5.893212
2004-05-12 15:54:25 51°14.031 2°55.474 13.003399 0.212969 1.188346 5.893212
2004-05-12 15:55:25 51°13.896 2°55.566 13.132386 0.195898 1.090389 5.893212
2004-05-12 15:56:26 51°13.78 2°55.672 13.227187 0.186322 1.037732 5.893212
2004-05-12 15:57:25 51°13.697 2°55.794 13.325244 0.179349 0.998109 5.893212
2004-05-12 15:58:25 51°13.652 2°55.91 13.407524 0.173834 0.966924 6.02805
2004-05-12 15:59:25 51°13.62 2°56.008 13.510877 0.168631 0.937562 5.994341
2004-05-12 16:00:25 51°13.602 2°56.076 13.593418 0.164468 0.91375 6.162888